createdAt,value
2023-07-10T00:01:01.279Z,2.05
2023-07-10T00:03:30.343Z,2.05
2023-07-10T00:06:01.376Z,2.83
2023-07-10T00:08:28.702Z,2.30
2023-07-10T00:10:55.823Z,3.10
2023-07-10T00:13:23.380Z,2.63
2023-07-10T00:15:57.321Z,3.67
2023-07-10T00:18:24.636Z,3.25
2023-07-10T00:20:51.988Z,2.65
2023-07-10T00:23:19.092Z,2.78
2023-07-10T00:25:45.992Z,3.58
2023-07-10T00:28:18.965Z,2.83
2023-07-10T00:30:47.217Z,3.40
2023-07-10T00:33:16.273Z,2.10
2023-07-10T00:35:43.764Z,2.47
2023-07-10T00:38:24.976Z,2.55
2023-07-10T00:40:51.939Z,2.15
2023-07-10T00:43:24.806Z,1.90
2023-07-10T00:45:53.142Z,2.50
2023-07-10T00:48:42.295Z,2.40
2023-07-10T00:51:37.543Z,2.00
2023-07-10T00:54:07.221Z,2.50
2023-07-10T00:56:47.059Z,2.00
2023-07-10T00:59:23.600Z,2.83
2023-07-10T01:02:08.903Z,2.75
2023-07-10T01:04:37.106Z,2.97
2023-07-10T01:07:04.213Z,3.75
2023-07-10T01:09:31.090Z,3.63
2023-07-10T01:12:00.852Z,2.95
2023-07-10T01:14:27.607Z,2.63
2023-07-10T01:16:54.382Z,2.80
2023-07-10T01:19:24.400Z,2.53
2023-07-10T01:21:52.161Z,2.97
2023-07-10T01:24:19.016Z,3.42
2023-07-10T01:26:45.900Z,2.30
2023-07-10T01:29:28.492Z,2.78
2023-07-10T01:31:56.919Z,2.90
2023-07-10T01:34:31.642Z,2.22
2023-07-10T01:36:58.466Z,2.75
2023-07-10T01:39:35.428Z,3.08
2023-07-10T01:42:02.821Z,2.58
2023-07-10T01:44:38.707Z,2.92
2023-07-10T01:47:09.050Z,3.10
2023-07-10T01:49:43.522Z,2.30
2023-07-10T01:52:12.291Z,3.60
2023-07-10T01:54:40.023Z,2.33
2023-07-10T01:57:08.501Z,3.25
2023-07-10T01:59:35.232Z,3.45
2023-07-10T02:02:03.332Z,3.00
2023-07-10T02:04:30.256Z,3.10
2023-07-10T02:06:57.083Z,2.85
2023-07-10T02:09:25.238Z,3.20
2023-07-10T02:11:52.545Z,3.72
2023-07-10T02:14:19.600Z,3.00
2023-07-10T02:16:46.700Z,3.80
2023-07-10T02:19:14.066Z,4.15
2023-07-10T02:21:41.666Z,4.00
2023-07-10T02:24:08.670Z,3.67
2023-07-10T02:26:35.639Z,5.07
2023-07-10T02:29:02.769Z,3.45
2023-07-10T02:31:30.276Z,3.72
2023-07-10T02:33:57.347Z,3.70
2023-07-10T02:36:25.433Z,3.70
2023-07-10T02:38:52.256Z,2.58
2023-07-10T02:41:19.436Z,3.13
2023-07-10T02:43:46.160Z,3.70
2023-07-10T02:46:13.073Z,3.00
2023-07-10T02:48:39.802Z,2.70
2023-07-10T02:51:06.999Z,3.58
2023-07-10T02:53:34.144Z,3.80
2023-07-10T02:56:01.456Z,3.30
2023-07-10T02:58:28.476Z,4.00
2023-07-10T03:00:57.073Z,3.58
2023-07-10T03:03:24.574Z,3.50
2023-07-10T03:05:59.798Z,3.53
2023-07-10T03:08:27.497Z,2.83
2023-07-10T03:11:07.656Z,3.15
2023-07-10T03:13:35.195Z,3.65
2023-07-10T03:16:06.532Z,3.33
2023-07-10T03:18:33.955Z,3.63
2023-07-10T03:21:00.797Z,2.92
2023-07-10T03:23:27.938Z,4.30
2023-07-10T03:25:54.771Z,3.13
2023-07-10T03:28:21.835Z,2.75
2023-07-10T03:30:48.780Z,3.13
2023-07-10T03:33:17.552Z,3.83
2023-07-10T03:35:50.110Z,3.05
2023-07-10T03:38:17.847Z,3.80
2023-07-10T03:40:52.487Z,2.97
2023-07-10T03:43:19.278Z,2.83
2023-07-10T03:45:46.101Z,3.10
2023-07-10T03:48:12.862Z,2.72
2023-07-10T03:50:43.154Z,3.08
2023-07-10T03:53:10.148Z,2.75
2023-07-10T03:55:36.967Z,3.03
2023-07-10T03:58:16.917Z,3.58
2023-07-10T04:00:43.803Z,3.22
2023-07-10T04:03:11.475Z,3.63
2023-07-10T04:05:38.472Z,3.95
2023-07-10T04:08:05.657Z,4.85
2023-07-10T04:10:33.685Z,2.88
2023-07-10T04:13:00.658Z,3.72
2023-07-10T04:15:30.414Z,3.78
2023-07-10T04:17:57.227Z,2.88
2023-07-10T04:20:24.328Z,2.80
2023-07-10T04:22:51.010Z,3.33
2023-07-10T04:25:17.784Z,3.92
2023-07-10T04:27:44.688Z,4.38
2023-07-10T04:30:16.517Z,4.00
2023-07-10T04:32:43.428Z,3.38
2023-07-10T04:35:10.069Z,3.17
2023-07-10T04:37:36.735Z,3.50
2023-07-10T04:40:03.462Z,4.63
2023-07-10T04:42:31.084Z,2.72
2023-07-10T04:50:29.962Z,3.78
2023-07-10T04:52:59.906Z,3.90
2023-07-10T04:55:26.645Z,3.75
2023-07-10T04:57:53.339Z,3.88
2023-07-10T05:00:20.430Z,3.85
2023-07-10T05:02:47.961Z,3.58
2023-07-10T05:05:14.989Z,3.97
2023-07-10T05:07:41.628Z,2.83
2023-07-10T05:10:08.738Z,3.00
2023-07-10T05:12:35.303Z,2.65
2023-07-10T05:15:01.870Z,2.45
2023-07-10T05:17:28.760Z,2.97
2023-07-10T05:19:55.556Z,2.65
2023-07-10T05:22:30.552Z,2.83
2023-07-10T05:24:57.487Z,2.75
2023-07-10T05:27:24.135Z,1.40
2023-07-10T05:29:50.930Z,1.75
2023-07-10T05:32:17.966Z,1.90
2023-07-10T05:34:44.681Z,1.98
2023-07-10T05:37:11.780Z,1.13
2023-07-10T05:39:38.451Z,1.55
2023-07-10T05:42:05.763Z,1.60
2023-07-10T05:44:32.366Z,1.63
2023-07-10T05:46:59.033Z,1.27
2023-07-10T05:49:26.090Z,1.20
2023-07-10T05:51:53.925Z,1.75
2023-07-10T05:54:22.994Z,1.25
2023-07-10T05:56:50.866Z,1.02
2023-07-10T05:59:22.850Z,1.50
2023-07-10T06:01:50.620Z,1.30
2023-07-10T06:04:17.502Z,1.50
2023-07-10T06:06:46.001Z,1.35
2023-07-10T06:09:16.220Z,0.88
2023-07-10T06:11:42.859Z,0.85
2023-07-10T06:14:09.497Z,0.90
2023-07-10T06:16:36.285Z,1.10
2023-07-10T06:19:03.040Z,1.65
2023-07-10T06:21:29.674Z,0.90
2023-07-10T06:23:56.563Z,0.70
2023-07-10T06:26:23.258Z,0.65
2023-07-10T06:28:50.789Z,1.20
2023-07-10T06:31:18.542Z,2.38
2023-07-10T06:33:45.115Z,1.83
2023-07-10T06:36:11.817Z,0.85
2023-07-10T06:38:38.479Z,1.20
2023-07-10T06:41:07.665Z,1.25
2023-07-10T06:43:34.682Z,1.17
2023-07-10T06:46:01.422Z,1.73
2023-07-10T06:48:28.358Z,1.17
2023-07-10T06:50:57.000Z,0.90
2023-07-10T06:53:27.684Z,0.60
2023-07-10T06:56:00.326Z,0.90
2023-07-10T06:58:28.306Z,0.82
2023-07-10T07:00:55.773Z,0.93
2023-07-10T07:03:23.269Z,0.95
2023-07-10T07:05:50.218Z,2.15
2023-07-10T07:08:20.804Z,0.80
2023-07-10T07:10:49.298Z,0.90
2023-07-10T07:13:16.542Z,1.35
2023-07-10T07:15:43.855Z,1.50
2023-07-10T07:18:10.730Z,1.30
2023-07-10T07:20:37.252Z,1.25
2023-07-10T07:23:03.840Z,1.30
2023-07-10T07:25:31.332Z,1.27
2023-07-10T07:28:01.393Z,1.05
2023-07-10T07:30:32.360Z,0.85
2023-07-10T07:32:59.756Z,1.27
2023-07-10T07:35:26.908Z,0.70
2023-07-10T07:37:54.259Z,1.02
2023-07-10T07:40:21.087Z,0.73
2023-07-10T07:42:48.390Z,1.08
2023-07-10T07:45:16.142Z,1.08
2023-07-10T07:47:43.116Z,1.02
2023-07-10T07:50:10.513Z,0.95
2023-07-10T07:52:37.549Z,0.90
2023-07-10T07:55:10.190Z,1.13
2023-07-10T07:57:39.245Z,1.00
2023-07-10T08:00:08.089Z,1.30
2023-07-10T08:02:34.967Z,0.73
2023-07-10T08:05:02.951Z,1.70
2023-07-10T08:07:29.736Z,0.90
2023-07-10T08:09:56.415Z,2.28
2023-07-10T08:12:24.559Z,1.52
2023-07-10T08:14:51.205Z,1.02
2023-07-10T08:17:17.671Z,1.27
2023-07-10T08:19:44.322Z,1.33
2023-07-10T08:22:10.857Z,2.15
2023-07-10T08:24:37.463Z,1.20
2023-07-10T08:27:04.369Z,1.83
2023-07-10T08:29:35.390Z,1.70
2023-07-10T08:32:02.809Z,0.82
2023-07-10T08:34:31.590Z,0.90
2023-07-10T08:37:02.795Z,0.85
2023-07-10T08:39:29.466Z,1.40
2023-07-10T08:42:01.514Z,0.73
2023-07-10T08:44:39.100Z,1.27
2023-07-10T08:47:17.213Z,1.00
2023-07-10T08:49:55.782Z,1.00
2023-07-10T08:52:45.363Z,1.08
2023-07-10T08:55:13.949Z,1.58
2023-07-10T08:57:49.029Z,0.95
2023-07-10T09:00:16.628Z,0.85
2023-07-10T09:02:46.642Z,0.70
2023-07-10T09:05:28.175Z,0.82
2023-07-10T09:07:56.858Z,0.90
2023-07-10T09:10:32.750Z,1.50
2023-07-10T09:13:04.635Z,0.75
2023-07-10T09:15:37.576Z,0.93
2023-07-10T09:18:25.551Z,1.77
2023-07-10T09:20:58.557Z,1.77
2023-07-10T09:23:29.491Z,0.90
2023-07-10T09:25:58.384Z,1.05
2023-07-10T09:28:26.096Z,0.70
2023-07-10T09:31:20.469Z,1.83
2023-07-10T09:34:00.432Z,1.10
2023-07-10T09:36:28.740Z,1.23
2023-07-10T09:38:58.106Z,0.82
2023-07-10T09:41:29.878Z,0.80
2023-07-10T09:46:36.924Z,0.95
2023-07-10T09:49:13.371Z,1.40
2023-07-10T09:52:02.079Z,1.02
2023-07-10T09:54:40.366Z,0.88
2023-07-10T09:57:19.347Z,0.82
2023-07-10T09:59:54.730Z,0.93
2023-07-10T10:02:34.193Z,1.10
2023-07-10T10:05:30.447Z,0.73
2023-07-10T10:08:19.954Z,0.85
2023-07-10T10:11:09.691Z,0.70
2023-07-10T10:13:58.020Z,1.42
2023-07-10T10:16:30.964Z,1.38
2023-07-10T10:19:20.567Z,0.80
2023-07-10T10:21:47.648Z,0.95
2023-07-10T10:24:14.917Z,0.70
2023-07-10T10:26:44.407Z,0.73
2023-07-10T10:29:58.663Z,0.93
2023-07-10T10:32:45.032Z,0.60
2023-07-10T10:35:38.540Z,0.70
2023-07-10T10:38:18.967Z,0.77
2023-07-10T10:41:45.207Z,0.80
2023-07-10T10:44:14.497Z,0.70
2023-07-10T10:47:31.172Z,0.73
2023-07-10T10:50:30.239Z,0.75
2023-07-10T10:53:17.475Z,0.73
2023-07-10T10:56:03.507Z,0.95
2023-07-10T10:58:56.709Z,0.88
2023-07-10T11:01:42.413Z,1.00
2023-07-10T11:04:15.027Z,0.70
2023-07-10T11:06:54.352Z,1.33
2023-07-10T11:09:32.847Z,0.73
2023-07-10T11:12:01.244Z,0.60
2023-07-10T11:14:29.180Z,0.75
2023-07-10T11:16:59.378Z,0.82
2023-07-10T11:19:29.643Z,0.75
2023-07-10T11:21:56.512Z,1.42
2023-07-10T11:24:26.121Z,0.77
2023-07-10T11:26:54.757Z,0.60
2023-07-10T11:29:37.645Z,1.20
2023-07-10T11:32:15.400Z,0.80
2023-07-10T11:35:21.926Z,1.40
2023-07-10T11:37:48.690Z,1.50
2023-07-10T11:40:46.066Z,1.10
2023-07-10T11:43:40.029Z,1.58
2023-07-10T11:46:18.908Z,0.75
2023-07-10T11:49:09.861Z,1.73
2023-07-10T11:51:36.539Z,0.85
2023-07-10T11:54:06.470Z,1.55
2023-07-10T11:56:34.184Z,0.95
2023-07-10T11:59:01.693Z,1.35
2023-07-10T12:01:28.611Z,1.60
2023-07-10T12:03:56.730Z,1.02
2023-07-10T12:06:25.826Z,1.38
2023-07-10T12:08:54.399Z,1.40
2023-07-10T12:11:37.243Z,1.38
2023-07-10T12:14:25.417Z,1.00
2023-07-10T12:17:25.790Z,1.13
2023-07-10T12:19:46.363Z,1.13
2023-07-10T12:22:23.598Z,0.95
2023-07-10T12:24:53.500Z,1.20
2023-07-10T12:29:55.436Z,1.10
2023-07-10T12:32:25.544Z,1.25
2023-07-10T12:34:54.813Z,1.00
2023-07-10T12:37:22.224Z,1.80
2023-07-10T12:39:52.209Z,1.42
2023-07-10T12:42:37.658Z,1.02
2023-07-10T12:45:16.336Z,1.27
2023-07-10T12:50:35.236Z,1.00
2023-07-10T12:53:05.838Z,1.27
2023-07-10T12:55:33.257Z,1.27
2023-07-10T12:58:01.932Z,0.90
2023-07-10T13:01:01.811Z,0.95
2023-07-10T13:03:37.726Z,1.25
2023-07-10T13:06:08.607Z,1.40
2023-07-10T13:08:41.830Z,1.33
2023-07-10T13:11:35.795Z,1.20
2023-07-10T13:16:44.164Z,0.80
2023-07-10T13:19:10.764Z,1.92
2023-07-10T13:21:37.341Z,1.08
2023-07-10T13:24:04.176Z,0.90
2023-07-10T13:26:30.774Z,1.02
2023-07-10T13:28:57.291Z,1.05
2023-07-10T13:31:29.367Z,0.73
2023-07-10T13:33:56.062Z,1.10
2023-07-10T13:36:25.806Z,1.40
2023-07-10T13:38:53.573Z,1.10
2023-07-10T13:41:25.325Z,1.17
2023-07-10T13:43:53.844Z,1.63
2023-07-10T13:46:28.119Z,0.90
2023-07-10T13:48:57.548Z,1.08
2023-07-10T13:51:27.041Z,0.70
2023-07-10T13:53:54.676Z,1.20
2023-07-10T13:56:28.807Z,1.17
2023-07-10T13:58:56.190Z,1.25
2023-07-10T14:01:24.691Z,1.73
2023-07-10T14:03:51.786Z,0.98
2023-07-10T14:06:36.256Z,1.33
2023-07-10T14:09:16.722Z,1.42
2023-07-10T14:11:43.758Z,1.20
2023-07-10T14:14:18.980Z,1.35
2023-07-10T14:16:47.032Z,0.98
2023-07-10T14:19:18.540Z,1.58
2023-07-10T14:21:47.280Z,1.13
2023-07-10T14:24:14.378Z,1.52
2023-07-10T14:26:41.174Z,1.23
2023-07-10T14:29:09.213Z,1.10
2023-07-10T14:31:35.910Z,1.40
2023-07-10T14:34:02.596Z,1.15
2023-07-10T14:36:29.374Z,1.70
2023-07-10T14:38:56.077Z,1.83
2023-07-10T14:41:25.384Z,1.02
2023-07-10T14:43:53.146Z,0.93
2023-07-10T14:46:31.857Z,1.90
2023-07-10T14:49:05.169Z,1.33
2023-07-10T14:51:31.813Z,1.30
2023-07-10T14:53:59.371Z,1.95
2023-07-10T14:56:25.936Z,1.65
2023-07-10T14:58:52.484Z,2.00
2023-07-10T15:01:19.389Z,2.15
2023-07-10T15:03:47.771Z,2.78
2023-07-10T15:06:28.474Z,1.80
2023-07-10T15:08:55.403Z,2.35
2023-07-10T15:11:23.583Z,1.73
2023-07-10T15:13:50.852Z,1.45
2023-07-10T15:16:20.300Z,3.00
2023-07-10T15:18:48.027Z,2.08
2023-07-10T15:21:17.296Z,1.88
2023-07-10T15:23:44.174Z,1.83
2023-07-10T15:26:11.303Z,1.35
2023-07-10T15:28:38.083Z,1.58
2023-07-10T15:31:07.398Z,1.30
2023-07-10T15:33:37.633Z,1.77
2023-07-10T15:36:05.557Z,1.23
2023-07-10T15:38:37.631Z,2.05
2023-07-10T15:41:18.577Z,1.48
2023-07-10T15:43:46.705Z,1.15
2023-07-10T15:46:13.450Z,1.08
2023-07-10T15:48:40.930Z,2.03
2023-07-10T15:51:20.252Z,2.00
2023-07-10T15:53:46.832Z,1.52
2023-07-10T15:56:13.385Z,2.53
2023-07-10T15:58:40.257Z,1.40
2023-07-10T16:01:13.570Z,1.13
2023-07-10T16:03:40.225Z,1.23
2023-07-10T16:06:06.932Z,1.50
2023-07-10T16:08:37.051Z,1.33
2023-07-10T16:11:09.945Z,2.13
2023-07-10T16:13:37.085Z,1.52
2023-07-10T16:18:44.496Z,1.58
2023-07-10T16:21:14.537Z,1.00
2023-07-10T16:23:41.238Z,1.33
2023-07-10T16:26:08.279Z,1.52
2023-07-10T16:28:35.054Z,1.23
2023-07-10T16:31:01.722Z,1.50
2023-07-10T16:33:30.660Z,0.88
2023-07-10T16:35:58.127Z,1.35
2023-07-10T16:38:26.412Z,1.40
2023-07-10T16:40:56.129Z,1.10
2023-07-10T16:43:34.230Z,0.95
2023-07-10T16:46:01.859Z,1.10
2023-07-10T16:48:29.891Z,1.50
2023-07-10T16:51:01.854Z,2.25
2023-07-10T16:53:32.812Z,0.95
2023-07-10T16:56:03.005Z,2.20
2023-07-10T16:58:31.922Z,1.58
2023-07-10T17:00:59.848Z,1.38
2023-07-10T17:03:33.315Z,1.33
2023-07-10T17:06:01.186Z,1.45
2023-07-10T17:08:29.310Z,1.23
2023-07-10T17:10:59.754Z,1.20
2023-07-10T17:13:30.505Z,1.00
2023-07-10T17:15:58.024Z,0.93
2023-07-10T17:18:27.682Z,1.27
2023-07-10T17:20:56.936Z,1.15
2023-07-10T17:23:29.017Z,1.63
2023-07-10T17:25:56.585Z,1.70
2023-07-10T17:28:26.639Z,1.13
2023-07-10T17:30:55.683Z,1.35
2023-07-10T17:33:31.923Z,1.25
2023-07-10T17:35:59.009Z,1.80
2023-07-10T17:38:28.675Z,0.90
2023-07-10T17:40:55.313Z,1.35
2023-07-10T17:43:22.029Z,1.10
2023-07-10T17:45:48.757Z,1.13
2023-07-10T17:48:20.465Z,1.75
2023-07-10T17:50:48.076Z,1.10
2023-07-10T17:53:16.826Z,1.77
2023-07-10T17:55:48.429Z,0.98
2023-07-10T18:00:46.999Z,1.27
2023-07-10T18:03:15.538Z,1.25
2023-07-10T18:05:44.305Z,1.10
2023-07-10T18:08:28.039Z,1.13
2023-07-10T18:11:02.556Z,1.15
2023-07-10T18:13:37.063Z,1.15
2023-07-10T18:16:06.832Z,2.03
2023-07-10T18:18:38.098Z,1.40
2023-07-10T18:21:25.163Z,1.33
2023-07-10T18:23:52.127Z,1.42
2023-07-10T18:26:21.057Z,1.00
2023-07-10T18:28:49.951Z,1.77
2023-07-10T18:31:25.410Z,1.10
2023-07-10T18:33:53.747Z,1.67
2023-07-10T18:36:21.368Z,0.95
2023-07-10T18:38:48.207Z,1.02
2023-07-10T18:41:26.825Z,1.38
2023-07-10T18:43:55.484Z,0.98
2023-07-10T18:46:24.657Z,1.30
2023-07-10T18:48:53.336Z,1.23
2023-07-10T18:51:27.603Z,1.15
2023-07-10T18:53:57.560Z,1.25
2023-07-10T18:56:24.316Z,1.60
2023-07-10T18:58:50.996Z,1.48
2023-07-10T19:01:21.647Z,1.00
2023-07-10T19:03:53.807Z,1.00
2023-07-10T19:06:25.630Z,1.20
2023-07-10T19:11:19.465Z,0.70
2023-07-10T19:13:47.272Z,0.90
2023-07-10T19:16:22.464Z,0.70
2023-07-10T19:18:59.787Z,0.85
2023-07-10T19:21:28.124Z,1.13
2023-07-10T19:23:54.784Z,0.98
2023-07-10T19:26:23.858Z,0.88
2023-07-10T19:28:51.259Z,0.70
2023-07-10T19:31:21.545Z,0.68
2023-07-10T19:33:50.638Z,1.25
2023-07-10T19:36:28.648Z,0.80
2023-07-10T19:38:56.375Z,0.57
2023-07-10T19:41:24.499Z,0.93
2023-07-10T19:43:51.330Z,0.60
2023-07-10T19:46:20.841Z,0.43
2023-07-10T19:48:48.110Z,0.60
2023-07-10T19:51:15.307Z,0.70
2023-07-10T19:53:42.346Z,0.38
2023-07-10T19:56:18.636Z,0.52
2023-07-10T19:58:51.260Z,0.50
2023-07-10T20:01:19.621Z,0.60
2023-07-10T20:03:47.349Z,0.63
2023-07-10T20:06:32.789Z,0.98
2023-07-10T20:09:03.644Z,0.28
2023-07-10T20:11:30.542Z,0.52
2023-07-10T20:13:57.208Z,1.05
2023-07-10T20:16:26.922Z,0.40
2023-07-10T20:18:54.939Z,0.68
2023-07-10T20:21:22.987Z,0.70
2023-07-10T20:23:52.087Z,1.23
2023-07-10T20:26:22.078Z,0.40
2023-07-10T20:28:49.417Z,0.50
2023-07-10T20:31:19.426Z,0.70
2023-07-10T20:33:47.861Z,0.68
2023-07-10T20:36:17.710Z,0.93
2023-07-10T20:38:46.890Z,1.05
2023-07-10T20:41:16.996Z,1.17
2023-07-10T20:43:47.343Z,1.15
2023-07-10T20:46:17.863Z,0.80
2023-07-10T20:48:44.969Z,1.33
2023-07-10T20:51:25.164Z,0.60
2023-07-10T20:53:56.963Z,0.60
2023-07-10T20:56:31.692Z,1.13
2023-07-10T20:59:02.063Z,1.33
2023-07-10T21:01:30.845Z,0.50
2023-07-10T21:03:58.862Z,0.40
2023-07-10T21:06:31.413Z,0.68
2023-07-10T21:09:00.048Z,0.45
2023-07-10T21:11:29.282Z,0.55
2023-07-10T21:13:56.804Z,1.00
2023-07-10T21:16:31.707Z,0.77
2023-07-10T21:19:05.093Z,1.52
2023-07-10T21:21:31.902Z,1.13
2023-07-10T21:23:58.737Z,0.98
2023-07-10T21:26:40.722Z,0.90
2023-07-10T21:29:14.141Z,1.20
2023-07-10T21:31:40.903Z,0.82
2023-07-10T21:34:13.405Z,1.27
2023-07-10T21:36:41.117Z,1.02
2023-07-10T21:39:08.650Z,1.58
2023-07-10T21:41:40.903Z,0.90
2023-07-10T21:44:14.092Z,0.65
2023-07-10T21:47:00.095Z,0.82
2023-07-10T21:49:27.106Z,1.45
2023-07-10T21:51:53.790Z,1.42
2023-07-10T21:54:20.630Z,1.10
2023-07-10T21:56:48.107Z,0.80
2023-07-10T21:59:21.479Z,1.65
2023-07-10T22:01:49.837Z,1.23
2023-07-10T22:04:18.096Z,1.20
2023-07-10T22:06:46.399Z,0.63
2023-07-10T22:09:14.901Z,0.80
2023-07-10T22:11:43.521Z,1.33
2023-07-10T22:14:15.081Z,1.38
2023-07-10T22:16:44.670Z,1.50
2023-07-10T22:19:13.168Z,1.77
2023-07-10T22:21:41.188Z,1.52
2023-07-10T22:24:15.767Z,1.17
2023-07-10T22:26:42.440Z,1.13
2023-07-10T22:29:09.509Z,0.90
2023-07-10T22:31:41.358Z,1.67
2023-07-10T22:34:08.575Z,1.80
2023-07-10T22:36:35.469Z,1.88
2023-07-10T22:39:02.303Z,1.50
2023-07-10T22:41:33.989Z,1.48
2023-07-10T22:44:08.393Z,1.75
2023-07-10T22:46:39.428Z,1.27
2023-07-10T22:49:08.468Z,1.25
2023-07-10T22:51:38.691Z,1.40
2023-07-10T22:54:05.749Z,1.27
2023-07-10T22:56:35.499Z,1.27
2023-07-10T22:59:03.083Z,1.20
2023-07-10T23:01:30.409Z,2.30
2023-07-10T23:03:57.350Z,2.13
2023-07-10T23:06:32.783Z,2.33
2023-07-10T23:09:00.188Z,2.35
2023-07-10T23:11:27.539Z,1.58
2023-07-10T23:13:54.265Z,1.23
2023-07-10T23:16:24.968Z,1.40
2023-07-10T23:18:57.988Z,1.23
2023-07-10T23:21:26.518Z,1.48
2023-07-10T23:23:54.260Z,1.52
2023-07-10T23:26:22.626Z,0.80
2023-07-10T23:28:50.123Z,1.30
2023-07-10T23:31:23.314Z,1.60
2023-07-10T23:33:51.004Z,1.63
2023-07-10T23:36:19.182Z,1.60
2023-07-10T23:38:46.735Z,1.55
2023-07-10T23:41:14.014Z,1.45
2023-07-10T23:43:42.298Z,1.73
2023-07-10T23:46:13.083Z,1.27
2023-07-10T23:48:41.238Z,0.95
2023-07-10T23:51:08.044Z,0.90
2023-07-10T23:53:34.965Z,1.55
2023-07-10T23:56:04.877Z,1.98
2023-07-10T23:58:31.872Z,1.55
